sensor_id;sensor_type;location;lat;lon;timestamp;P1;durP1;ratioP1;P2;durP2;ratioP2
10154;SDS011;5118;48.570;7.916;2023-08-06T00:00:53;3.00;;;2.70;;
10154;SDS011;5118;48.570;7.916;2023-08-06T00:03:22;3.20;;;2.90;;
10154;SDS011;5118;48.570;7.916;2023-08-06T00:05:51;3.03;;;2.73;;
10154;SDS011;5118;48.570;7.916;2023-08-06T00:08:20;3.20;;;2.60;;
10154;SDS011;5118;48.570;7.916;2023-08-06T00:10:50;4.07;;;3.10;;
10154;SDS011;5118;48.570;7.916;2023-08-06T00:13:19;2.83;;;2.57;;
10154;SDS011;5118;48.570;7.916;2023-08-06T00:15:48;4.93;;;2.50;;
10154;SDS011;5118;48.570;7.916;2023-08-06T00:18:17;3.17;;;2.80;;
10154;SDS011;5118;48.570;7.916;2023-08-06T00:20:46;3.13;;;2.60;;
10154;SDS011;5118;48.570;7.916;2023-08-06T00:23:14;3.30;;;2.63;;
10154;SDS011;5118;48.570;7.916;2023-08-06T00:25:44;3.40;;;2.67;;
10154;SDS011;5118;48.570;7.916;2023-08-06T00:28:14;3.57;;;2.40;;
10154;SDS011;5118;48.570;7.916;2023-08-06T00:30:43;3.87;;;2.90;;
10154;SDS011;5118;48.570;7.916;2023-08-06T00:33:11;4.30;;;3.00;;
10154;SDS011;5118;48.570;7.916;2023-08-06T00:35:40;4.83;;;2.77;;
10154;SDS011;5118;48.570;7.916;2023-08-06T00:38:09;3.67;;;2.97;;
10154;SDS011;5118;48.570;7.916;2023-08-06T00:40:38;5.13;;;2.70;;
10154;SDS011;5118;48.570;7.916;2023-08-06T00:43:07;4.03;;;2.72;;
10154;SDS011;5118;48.570;7.916;2023-08-06T00:45:37;3.10;;;2.80;;
10154;SDS011;5118;48.570;7.916;2023-08-06T00:48:06;3.27;;;2.50;;
10154;SDS011;5118;48.570;7.916;2023-08-06T00:50:35;3.77;;;2.90;;
10154;SDS011;5118;48.570;7.916;2023-08-06T00:53:04;3.37;;;2.90;;
10154;SDS011;5118;48.570;7.916;2023-08-06T00:55:33;4.10;;;2.73;;
10154;SDS011;5118;48.570;7.916;2023-08-06T00:58:02;4.50;;;3.00;;
10154;SDS011;5118;48.570;7.916;2023-08-06T01:00:33;6.40;;;3.20;;
10154;SDS011;5118;48.570;7.916;2023-08-06T01:03:03;5.27;;;3.20;;
10154;SDS011;5118;48.570;7.916;2023-08-06T01:05:32;3.70;;;3.03;;
10154;SDS011;5118;48.570;7.916;2023-08-06T01:08:05;6.50;;;3.20;;
10154;SDS011;5118;48.570;7.916;2023-08-06T01:10:46;3.33;;;3.03;;
10154;SDS011;5118;48.570;7.916;2023-08-06T01:13:27;6.43;;;3.20;;
10154;SDS011;5118;48.570;7.916;2023-08-06T01:16:02;5.50;;;2.80;;
10154;SDS011;5118;48.570;7.916;2023-08-06T01:18:34;3.70;;;2.90;;
10154;SDS011;5118;48.570;7.916;2023-08-06T01:21:09;5.77;;;3.23;;
10154;SDS011;5118;48.570;7.916;2023-08-06T01:23:38;3.40;;;3.10;;
10154;SDS011;5118;48.570;7.916;2023-08-06T01:26:10;3.13;;;2.80;;
10154;SDS011;5118;48.570;7.916;2023-08-06T01:28:45;3.40;;;2.70;;
10154;SDS011;5118;48.570;7.916;2023-08-06T01:31:24;3.83;;;2.93;;
10154;SDS011;5118;48.570;7.916;2023-08-06T01:33:58;5.30;;;2.90;;
10154;SDS011;5118;48.570;7.916;2023-08-06T01:36:31;5.27;;;2.90;;
10154;SDS011;5118;48.570;7.916;2023-08-06T01:39:00;3.20;;;2.90;;
10154;SDS011;5118;48.570;7.916;2023-08-06T01:41:29;3.83;;;2.83;;
10154;SDS011;5118;48.570;7.916;2023-08-06T01:43:57;6.07;;;3.00;;
10154;SDS011;5118;48.570;7.916;2023-08-06T01:46:26;3.10;;;2.80;;
10154;SDS011;5118;48.570;7.916;2023-08-06T01:48:54;5.33;;;3.07;;
10154;SDS011;5118;48.570;7.916;2023-08-06T01:51:22;3.37;;;3.07;;
10154;SDS011;5118;48.570;7.916;2023-08-06T01:53:52;5.30;;;2.90;;
10154;SDS011;5118;48.570;7.916;2023-08-06T01:56:21;3.60;;;3.30;;
10154;SDS011;5118;48.570;7.916;2023-08-06T01:58:50;4.73;;;3.70;;
10154;SDS011;5118;48.570;7.916;2023-08-06T02:01:18;4.73;;;3.27;;
10154;SDS011;5118;48.570;7.916;2023-08-06T02:03:46;4.17;;;3.40;;
10154;SDS011;5118;48.570;7.916;2023-08-06T02:06:15;6.20;;;3.90;;
10154;SDS011;5118;48.570;7.916;2023-08-06T02:08:44;5.23;;;3.80;;
10154;SDS011;5118;48.570;7.916;2023-08-06T02:11:16;5.90;;;3.90;;
10154;SDS011;5118;48.570;7.916;2023-08-06T02:13:45;4.80;;;3.80;;
10154;SDS011;5118;48.570;7.916;2023-08-06T02:16:17;5.97;;;3.80;;
10154;SDS011;5118;48.570;7.916;2023-08-06T02:18:46;5.40;;;3.60;;
10154;SDS011;5118;48.570;7.916;2023-08-06T02:21:24;4.80;;;4.13;;
10154;SDS011;5118;48.570;7.916;2023-08-06T02:23:53;6.20;;;4.40;;
10154;SDS011;5118;48.570;7.916;2023-08-06T02:26:40;5.23;;;4.40;;
10154;SDS011;5118;48.570;7.916;2023-08-06T02:29:09;5.67;;;4.30;;
10154;SDS011;5118;48.570;7.916;2023-08-06T02:31:37;5.77;;;4.10;;
10154;SDS011;5118;48.570;7.916;2023-08-06T02:34:06;4.17;;;3.27;;
10154;SDS011;5118;48.570;7.916;2023-08-06T02:36:34;5.70;;;3.47;;
10154;SDS011;5118;48.570;7.916;2023-08-06T02:39:03;7.37;;;3.30;;
10154;SDS011;5118;48.570;7.916;2023-08-06T02:41:31;9.83;;;3.40;;
10154;SDS011;5118;48.570;7.916;2023-08-06T02:44:01;4.97;;;3.43;;
10154;SDS011;5118;48.570;7.916;2023-08-06T02:46:30;5.57;;;3.37;;
10154;SDS011;5118;48.570;7.916;2023-08-06T02:48:58;5.10;;;3.53;;
10154;SDS011;5118;48.570;7.916;2023-08-06T02:51:26;6.57;;;3.80;;
10154;SDS011;5118;48.570;7.916;2023-08-06T02:53:55;5.13;;;4.00;;
10154;SDS011;5118;48.570;7.916;2023-08-06T02:56:23;4.53;;;3.97;;
10154;SDS011;5118;48.570;7.916;2023-08-06T02:59:05;5.53;;;4.20;;
10154;SDS011;5118;48.570;7.916;2023-08-06T03:01:46;6.40;;;4.40;;
10154;SDS011;5118;48.570;7.916;2023-08-06T03:04:23;6.10;;;4.43;;
10154;SDS011;5118;48.570;7.916;2023-08-06T03:06:52;9.93;;;4.87;;
10154;SDS011;5118;48.570;7.916;2023-08-06T03:09:24;8.90;;;5.67;;
10154;SDS011;5118;48.570;7.916;2023-08-06T03:11:53;8.03;;;5.20;;
10154;SDS011;5118;48.570;7.916;2023-08-06T03:14:23;7.67;;;5.07;;
10154;SDS011;5118;48.570;7.916;2023-08-06T03:16:52;9.30;;;5.20;;
10154;SDS011;5118;48.570;7.916;2023-08-06T03:19:20;9.93;;;4.90;;
10154;SDS011;5118;48.570;7.916;2023-08-06T03:21:49;10.03;;;5.20;;
10154;SDS011;5118;48.570;7.916;2023-08-06T03:24:18;8.47;;;4.70;;
10154;SDS011;5118;48.570;7.916;2023-08-06T03:26:46;10.17;;;5.40;;
10154;SDS011;5118;48.570;7.916;2023-08-06T03:29:14;6.77;;;4.80;;
10154;SDS011;5118;48.570;7.916;2023-08-06T03:31:45;9.13;;;5.43;;
10154;SDS011;5118;48.570;7.916;2023-08-06T03:34:15;8.83;;;4.93;;
10154;SDS011;5118;48.570;7.916;2023-08-06T03:36:44;10.90;;;4.70;;
10154;SDS011;5118;48.570;7.916;2023-08-06T03:39:12;7.93;;;4.50;;
10154;SDS011;5118;48.570;7.916;2023-08-06T03:41:41;8.10;;;4.20;;
10154;SDS011;5118;48.570;7.916;2023-08-06T03:44:10;5.13;;;3.40;;
10154;SDS011;5118;48.570;7.916;2023-08-06T03:46:39;6.27;;;3.50;;
10154;SDS011;5118;48.570;7.916;2023-08-06T03:49:09;6.20;;;3.17;;
10154;SDS011;5118;48.570;7.916;2023-08-06T03:51:38;6.60;;;3.20;;
10154;SDS011;5118;48.570;7.916;2023-08-06T03:54:06;5.40;;;2.83;;
10154;SDS011;5118;48.570;7.916;2023-08-06T03:56:35;6.73;;;2.93;;
10154;SDS011;5118;48.570;7.916;2023-08-06T03:59:04;4.00;;;2.63;;
10154;SDS011;5118;48.570;7.916;2023-08-06T04:01:32;7.07;;;2.50;;
10154;SDS011;5118;48.570;7.916;2023-08-06T04:04:00;5.67;;;2.33;;
10154;SDS011;5118;48.570;7.916;2023-08-06T04:06:30;3.57;;;2.30;;
10154;SDS011;5118;48.570;7.916;2023-08-06T04:08:58;4.40;;;2.17;;
10154;SDS011;5118;48.570;7.916;2023-08-06T04:11:27;5.90;;;2.20;;
10154;SDS011;5118;48.570;7.916;2023-08-06T04:13:55;3.50;;;1.90;;
10154;SDS011;5118;48.570;7.916;2023-08-06T04:16:23;4.93;;;2.20;;
10154;SDS011;5118;48.570;7.916;2023-08-06T04:18:54;5.30;;;1.80;;
10154;SDS011;5118;48.570;7.916;2023-08-06T04:21:22;3.37;;;1.57;;
10154;SDS011;5118;48.570;7.916;2023-08-06T04:23:52;3.70;;;1.50;;
10154;SDS011;5118;48.570;7.916;2023-08-06T04:26:21;1.90;;;1.27;;
10154;SDS011;5118;48.570;7.916;2023-08-06T04:28:49;2.27;;;1.43;;
10154;SDS011;5118;48.570;7.916;2023-08-06T04:31:19;3.13;;;1.50;;
10154;SDS011;5118;48.570;7.916;2023-08-06T04:33:47;1.30;;;1.20;;
10154;SDS011;5118;48.570;7.916;2023-08-06T04:36:16;3.77;;;1.27;;
10154;SDS011;5118;48.570;7.916;2023-08-06T04:38:45;3.47;;;1.10;;
10154;SDS011;5118;48.570;7.916;2023-08-06T04:41:16;1.40;;;0.90;;
10154;SDS011;5118;48.570;7.916;2023-08-06T04:43:44;2.20;;;1.10;;
10154;SDS011;5118;48.570;7.916;2023-08-06T04:46:13;1.93;;;0.90;;
10154;SDS011;5118;48.570;7.916;2023-08-06T04:48:41;3.93;;;1.10;;
10154;SDS011;5118;48.570;7.916;2023-08-06T04:51:09;2.60;;;1.00;;
10154;SDS011;5118;48.570;7.916;2023-08-06T04:53:38;2.57;;;1.00;;
10154;SDS011;5118;48.570;7.916;2023-08-06T04:56:06;2.63;;;0.97;;
10154;SDS011;5118;48.570;7.916;2023-08-06T04:58:36;3.63;;;1.10;;
10154;SDS011;5118;48.570;7.916;2023-08-06T05:01:06;1.53;;;0.80;;
10154;SDS011;5118;48.570;7.916;2023-08-06T05:03:34;2.47;;;1.00;;
10154;SDS011;5118;48.570;7.916;2023-08-06T05:06:02;2.40;;;1.27;;
10154;SDS011;5118;48.570;7.916;2023-08-06T05:08:31;2.20;;;1.00;;
10154;SDS011;5118;48.570;7.916;2023-08-06T05:10:59;1.20;;;0.83;;
10154;SDS011;5118;48.570;7.916;2023-08-06T05:13:28;3.43;;;1.10;;
10154;SDS011;5118;48.570;7.916;2023-08-06T05:15:57;1.50;;;0.80;;
10154;SDS011;5118;48.570;7.916;2023-08-06T05:18:26;3.63;;;1.00;;
10154;SDS011;5118;48.570;7.916;2023-08-06T05:20:54;1.67;;;1.10;;
10154;SDS011;5118;48.570;7.916;2023-08-06T05:23:23;2.47;;;1.27;;
10154;SDS011;5118;48.570;7.916;2023-08-06T05:25:52;1.90;;;1.10;;
10154;SDS011;5118;48.570;7.916;2023-08-06T05:28:20;2.60;;;1.00;;
10154;SDS011;5118;48.570;7.916;2023-08-06T05:30:48;2.17;;;1.00;;
10154;SDS011;5118;48.570;7.916;2023-08-06T05:33:18;2.67;;;1.33;;
10154;SDS011;5118;48.570;7.916;2023-08-06T05:35:46;4.63;;;1.53;;
10154;SDS011;5118;48.570;7.916;2023-08-06T05:38:16;5.83;;;1.90;;
10154;SDS011;5118;48.570;7.916;2023-08-06T05:40:44;3.47;;;1.70;;
10154;SDS011;5118;48.570;7.916;2023-08-06T05:43:13;3.47;;;1.90;;
10154;SDS011;5118;48.570;7.916;2023-08-06T05:45:43;3.57;;;1.70;;
10154;SDS011;5118;48.570;7.916;2023-08-06T05:48:12;2.87;;;1.83;;
10154;SDS011;5118;48.570;7.916;2023-08-06T05:50:42;3.17;;;1.90;;
10154;SDS011;5118;48.570;7.916;2023-08-06T05:53:10;4.10;;;2.03;;
10154;SDS011;5118;48.570;7.916;2023-08-06T05:55:39;3.00;;;1.90;;
10154;SDS011;5118;48.570;7.916;2023-08-06T05:58:07;4.53;;;2.10;;
10154;SDS011;5118;48.570;7.916;2023-08-06T06:00:35;4.07;;;1.70;;
10154;SDS011;5118;48.570;7.916;2023-08-06T06:03:04;3.20;;;1.70;;
10154;SDS011;5118;48.570;7.916;2023-08-06T06:05:32;4.83;;;1.70;;
10154;SDS011;5118;48.570;7.916;2023-08-06T06:08:02;6.30;;;2.20;;
10154;SDS011;5118;48.570;7.916;2023-08-06T06:10:31;4.70;;;1.90;;
10154;SDS011;5118;48.570;7.916;2023-08-06T06:12:59;4.30;;;1.70;;
10154;SDS011;5118;48.570;7.916;2023-08-06T06:15:28;5.00;;;2.10;;
10154;SDS011;5118;48.570;7.916;2023-08-06T06:17:57;3.83;;;2.10;;
10154;SDS011;5118;48.570;7.916;2023-08-06T06:20:25;4.10;;;1.83;;
10154;SDS011;5118;48.570;7.916;2023-08-06T06:22:54;4.00;;;2.20;;
10154;SDS011;5118;48.570;7.916;2023-08-06T06:25:24;6.17;;;1.87;;
10154;SDS011;5118;48.570;7.916;2023-08-06T06:27:54;4.20;;;2.13;;
10154;SDS011;5118;48.570;7.916;2023-08-06T06:30:23;3.63;;;1.90;;
10154;SDS011;5118;48.570;7.916;2023-08-06T06:32:51;3.60;;;1.97;;
10154;SDS011;5118;48.570;7.916;2023-08-06T06:35:22;4.33;;;2.37;;
10154;SDS011;5118;48.570;7.916;2023-08-06T06:37:52;4.83;;;2.07;;
10154;SDS011;5118;48.570;7.916;2023-08-06T06:40:20;5.10;;;2.40;;
10154;SDS011;5118;48.570;7.916;2023-08-06T06:42:50;7.20;;;2.23;;
10154;SDS011;5118;48.570;7.916;2023-08-06T06:45:19;3.93;;;1.90;;
10154;SDS011;5118;48.570;7.916;2023-08-06T06:47:47;6.77;;;2.40;;
10154;SDS011;5118;48.570;7.916;2023-08-06T06:50:18;5.30;;;2.23;;
10154;SDS011;5118;48.570;7.916;2023-08-06T06:52:47;6.03;;;2.40;;
10154;SDS011;5118;48.570;7.916;2023-08-06T06:55:15;4.73;;;2.00;;
10154;SDS011;5118;48.570;7.916;2023-08-06T06:57:43;4.40;;;2.03;;
10154;SDS011;5118;48.570;7.916;2023-08-06T07:00:14;6.13;;;2.17;;
10154;SDS011;5118;48.570;7.916;2023-08-06T07:02:42;5.23;;;1.90;;
10154;SDS011;5118;48.570;7.916;2023-08-06T07:05:11;5.17;;;2.10;;
10154;SDS011;5118;48.570;7.916;2023-08-06T07:07:39;8.27;;;2.37;;
10154;SDS011;5118;48.570;7.916;2023-08-06T07:10:08;5.50;;;2.03;;
10154;SDS011;5118;48.570;7.916;2023-08-06T07:12:38;3.30;;;1.70;;
10154;SDS011;5118;48.570;7.916;2023-08-06T07:15:06;5.57;;;1.80;;
10154;SDS011;5118;48.570;7.916;2023-08-06T07:17:36;5.00;;;1.90;;
10154;SDS011;5118;48.570;7.916;2023-08-06T07:20:06;4.67;;;2.07;;
10154;SDS011;5118;48.570;7.916;2023-08-06T07:22:35;3.47;;;1.80;;
10154;SDS011;5118;48.570;7.916;2023-08-06T07:25:04;2.93;;;1.80;;
10154;SDS011;5118;48.570;7.916;2023-08-06T07:27:33;4.17;;;2.00;;
10154;SDS011;5118;48.570;7.916;2023-08-06T07:30:02;7.43;;;1.93;;
10154;SDS011;5118;48.570;7.916;2023-08-06T07:32:32;7.03;;;1.80;;
10154;SDS011;5118;48.570;7.916;2023-08-06T07:35:02;6.03;;;1.70;;
10154;SDS011;5118;48.570;7.916;2023-08-06T07:37:31;4.03;;;1.60;;
10154;SDS011;5118;48.570;7.916;2023-08-06T07:40:00;4.97;;;1.50;;
10154;SDS011;5118;48.570;7.916;2023-08-06T07:42:29;4.73;;;1.30;;
10154;SDS011;5118;48.570;7.916;2023-08-06T07:44:58;3.27;;;1.40;;
10154;SDS011;5118;48.570;7.916;2023-08-06T07:47:27;2.87;;;1.23;;
10154;SDS011;5118;48.570;7.916;2023-08-06T07:49:56;4.27;;;1.50;;
10154;SDS011;5118;48.570;7.916;2023-08-06T07:52:29;5.07;;;1.60;;
10154;SDS011;5118;48.570;7.916;2023-08-06T07:54:58;3.13;;;1.40;;
10154;SDS011;5118;48.570;7.916;2023-08-06T07:57:28;2.43;;;1.20;;
10154;SDS011;5118;48.570;7.916;2023-08-06T07:59:56;5.20;;;1.60;;
10154;SDS011;5118;48.570;7.916;2023-08-06T08:02:25;2.07;;;1.30;;
10154;SDS011;5118;48.570;7.916;2023-08-06T08:04:53;3.77;;;1.67;;
10154;SDS011;5118;48.570;7.916;2023-08-06T08:07:22;3.23;;;1.57;;
10154;SDS011;5118;48.570;7.916;2023-08-06T08:09:52;2.63;;;1.30;;
10154;SDS011;5118;48.570;7.916;2023-08-06T08:12:20;5.33;;;1.60;;
10154;SDS011;5118;48.570;7.916;2023-08-06T08:14:50;4.50;;;1.40;;
10154;SDS011;5118;48.570;7.916;2023-08-06T08:17:18;4.23;;;1.53;;
10154;SDS011;5118;48.570;7.916;2023-08-06T08:19:47;3.07;;;1.30;;
10154;SDS011;5118;48.570;7.916;2023-08-06T08:22:15;4.43;;;1.50;;
10154;SDS011;5118;48.570;7.916;2023-08-06T08:24:44;4.17;;;1.50;;
10154;SDS011;5118;48.570;7.916;2023-08-06T08:27:16;5.50;;;1.70;;
10154;SDS011;5118;48.570;7.916;2023-08-06T08:29:44;5.27;;;1.77;;
10154;SDS011;5118;48.570;7.916;2023-08-06T08:32:13;11.23;;;1.90;;
10154;SDS011;5118;48.570;7.916;2023-08-06T08:34:41;4.80;;;1.90;;
10154;SDS011;5118;48.570;7.916;2023-08-06T08:40:05;3.73;;;1.80;;
10154;SDS011;5118;48.570;7.916;2023-08-06T08:42:37;4.90;;;1.80;;
10154;SDS011;5118;48.570;7.916;2023-08-06T08:45:07;4.63;;;1.70;;
10154;SDS011;5118;48.570;7.916;2023-08-06T08:47:41;6.57;;;1.57;;
10154;SDS011;5118;48.570;7.916;2023-08-06T08:50:10;4.20;;;1.70;;
10154;SDS011;5118;48.570;7.916;2023-08-06T08:52:40;3.47;;;1.60;;
10154;SDS011;5118;48.570;7.916;2023-08-06T08:55:12;4.03;;;1.80;;
10154;SDS011;5118;48.570;7.916;2023-08-06T08:57:44;4.90;;;1.60;;
10154;SDS011;5118;48.570;7.916;2023-08-06T09:00:13;4.13;;;1.60;;
10154;SDS011;5118;48.570;7.916;2023-08-06T09:02:42;3.37;;;1.50;;
10154;SDS011;5118;48.570;7.916;2023-08-06T09:05:12;3.63;;;1.60;;
10154;SDS011;5118;48.570;7.916;2023-08-06T09:07:43;6.60;;;1.63;;
10154;SDS011;5118;48.570;7.916;2023-08-06T09:10:17;3.93;;;1.60;;
10154;SDS011;5118;48.570;7.916;2023-08-06T09:12:49;2.30;;;1.30;;
10154;SDS011;5118;48.570;7.916;2023-08-06T09:15:20;2.43;;;0.90;;
10154;SDS011;5118;48.570;7.916;2023-08-06T09:17:51;2.40;;;1.10;;
10154;SDS011;5118;48.570;7.916;2023-08-06T09:20:20;1.40;;;1.10;;
10154;SDS011;5118;48.570;7.916;2023-08-06T09:22:49;1.17;;;0.90;;
10154;SDS011;5118;48.570;7.916;2023-08-06T09:25:21;1.87;;;1.00;;
10154;SDS011;5118;48.570;7.916;2023-08-06T09:27:57;0.90;;;0.70;;
10154;SDS011;5118;48.570;7.916;2023-08-06T09:30:29;1.30;;;0.90;;
10154;SDS011;5118;48.570;7.916;2023-08-06T09:32:59;1.37;;;0.80;;
10154;SDS011;5118;48.570;7.916;2023-08-06T09:35:31;1.17;;;0.80;;
10154;SDS011;5118;48.570;7.916;2023-08-06T09:38:05;1.13;;;0.77;;
10154;SDS011;5118;48.570;7.916;2023-08-06T09:40:39;0.80;;;0.80;;
10154;SDS011;5118;48.570;7.916;2023-08-06T09:43:18;0.80;;;0.80;;
10154;SDS011;5118;48.570;7.916;2023-08-06T09:45:48;0.60;;;0.50;;
10154;SDS011;5118;48.570;7.916;2023-08-06T09:48:31;1.57;;;0.60;;
10154;SDS011;5118;48.570;7.916;2023-08-06T09:51:02;0.60;;;0.50;;
10154;SDS011;5118;48.570;7.916;2023-08-06T09:54:07;1.23;;;0.53;;
10154;SDS011;5118;48.570;7.916;2023-08-06T09:56:53;1.17;;;0.70;;
10154;SDS011;5118;48.570;7.916;2023-08-06T09:59:37;0.67;;;0.67;;
10154;SDS011;5118;48.570;7.916;2023-08-06T10:02:17;0.80;;;0.60;;
10154;SDS011;5118;48.570;7.916;2023-08-06T10:04:52;1.27;;;0.70;;
10154;SDS011;5118;48.570;7.916;2023-08-06T10:07:23;0.50;;;0.50;;
10154;SDS011;5118;48.570;7.916;2023-08-06T10:09:52;0.57;;;0.57;;
10154;SDS011;5118;48.570;7.916;2023-08-06T10:12:27;1.00;;;0.50;;
10154;SDS011;5118;48.570;7.916;2023-08-06T10:15:06;0.40;;;0.40;;
10154;SDS011;5118;48.570;7.916;2023-08-06T10:17:38;0.50;;;0.50;;
10154;SDS011;5118;48.570;7.916;2023-08-06T10:20:17;0.67;;;0.60;;
10154;SDS011;5118;48.570;7.916;2023-08-06T10:22:57;0.63;;;0.63;;
10154;SDS011;5118;48.570;7.916;2023-08-06T10:25:30;1.10;;;1.00;;
10154;SDS011;5118;48.570;7.916;2023-08-06T10:28:00;2.30;;;1.30;;
10154;SDS011;5118;48.570;7.916;2023-08-06T10:30:40;1.70;;;1.30;;
10154;SDS011;5118;48.570;7.916;2023-08-06T10:33:09;1.30;;;1.20;;
10154;SDS011;5118;48.570;7.916;2023-08-06T10:35:40;2.43;;;1.53;;
10154;SDS011;5118;48.570;7.916;2023-08-06T10:38:11;1.70;;;1.60;;
10154;SDS011;5118;48.570;7.916;2023-08-06T10:40:47;1.50;;;1.40;;
10154;SDS011;5118;48.570;7.916;2023-08-06T10:43:27;2.03;;;1.70;;
10154;SDS011;5118;48.570;7.916;2023-08-06T10:45:58;3.10;;;2.10;;
10154;SDS011;5118;48.570;7.916;2023-08-06T10:48:28;3.20;;;2.23;;
10154;SDS011;5118;48.570;7.916;2023-08-06T10:50:59;3.40;;;2.67;;
10154;SDS011;5118;48.570;7.916;2023-08-06T10:53:28;2.20;;;2.00;;
10154;SDS011;5118;48.570;7.916;2023-08-06T10:56:00;2.70;;;2.03;;
10154;SDS011;5118;48.570;7.916;2023-08-06T10:58:32;2.10;;;1.80;;
10154;SDS011;5118;48.570;7.916;2023-08-06T11:01:02;1.93;;;1.73;;
10154;SDS011;5118;48.570;7.916;2023-08-06T11:03:31;2.53;;;2.00;;
10154;SDS011;5118;48.570;7.916;2023-08-06T11:06:00;2.43;;;2.00;;
10154;SDS011;5118;48.570;7.916;2023-08-06T11:08:33;4.00;;;1.90;;
10154;SDS011;5118;48.570;7.916;2023-08-06T11:11:08;1.87;;;1.70;;
10154;SDS011;5118;48.570;7.916;2023-08-06T11:13:40;2.27;;;2.00;;
10154;SDS011;5118;48.570;7.916;2023-08-06T11:16:09;2.23;;;2.00;;
10154;SDS011;5118;48.570;7.916;2023-08-06T11:18:39;2.67;;;2.00;;
10154;SDS011;5118;48.570;7.916;2023-08-06T11:21:07;1.97;;;1.83;;
10154;SDS011;5118;48.570;7.916;2023-08-06T11:23:38;2.77;;;1.90;;
10154;SDS011;5118;48.570;7.916;2023-08-06T11:26:08;2.10;;;2.00;;
10154;SDS011;5118;48.570;7.916;2023-08-06T11:28:36;2.23;;;1.87;;
10154;SDS011;5118;48.570;7.916;2023-08-06T11:31:19;1.92;;;1.83;;
10154;SDS011;5118;48.570;7.916;2023-08-06T11:33:48;2.15;;;1.95;;
10154;SDS011;5118;48.570;7.916;2023-08-06T11:36:17;2.53;;;1.80;;
10154;SDS011;5118;48.570;7.916;2023-08-06T11:38:57;2.10;;;1.90;;
10154;SDS011;5118;48.570;7.916;2023-08-06T11:41:27;2.43;;;1.70;;
10154;SDS011;5118;48.570;7.916;2023-08-06T11:43:56;1.88;;;1.70;;
10154;SDS011;5118;48.570;7.916;2023-08-06T11:46:26;3.70;;;1.45;;
10154;SDS011;5118;48.570;7.916;2023-08-06T11:48:55;1.77;;;1.50;;
10154;SDS011;5118;48.570;7.916;2023-08-06T11:51:26;1.60;;;1.50;;
10154;SDS011;5118;48.570;7.916;2023-08-06T11:53:57;1.30;;;1.20;;
10154;SDS011;5118;48.570;7.916;2023-08-06T11:56:27;1.20;;;1.20;;
10154;SDS011;5118;48.570;7.916;2023-08-06T11:58:56;4.30;;;1.60;;
10154;SDS011;5118;48.570;7.916;2023-08-06T12:01:26;1.40;;;1.30;;
10154;SDS011;5118;48.570;7.916;2023-08-06T12:03:58;2.65;;;1.00;;
10154;SDS011;5118;48.570;7.916;2023-08-06T12:06:27;1.48;;;1.10;;
10154;SDS011;5118;48.570;7.916;2023-08-06T12:08:55;1.20;;;1.10;;
10154;SDS011;5118;48.570;7.916;2023-08-06T12:11:24;0.93;;;0.93;;
10154;SDS011;5118;48.570;7.916;2023-08-06T12:13:54;0.90;;;0.90;;
10154;SDS011;5118;48.570;7.916;2023-08-06T12:16:23;0.80;;;0.80;;
10154;SDS011;5118;48.570;7.916;2023-08-06T12:18:54;0.75;;;0.75;;
10154;SDS011;5118;48.570;7.916;2023-08-06T12:21:22;0.90;;;0.90;;
10154;SDS011;5118;48.570;7.916;2023-08-06T12:23:50;2.05;;;0.80;;
10154;SDS011;5118;48.570;7.916;2023-08-06T12:26:19;1.00;;;0.80;;
10154;SDS011;5118;48.570;7.916;2023-08-06T12:28:47;0.70;;;0.70;;
10154;SDS011;5118;48.570;7.916;2023-08-06T12:31:16;1.02;;;0.73;;
10154;SDS011;5118;48.570;7.916;2023-08-06T12:33:45;1.15;;;0.73;;
10154;SDS011;5118;48.570;7.916;2023-08-06T12:36:14;0.75;;;0.75;;
10154;SDS011;5118;48.570;7.916;2023-08-06T12:38:43;0.70;;;0.70;;
10154;SDS011;5118;48.570;7.916;2023-08-06T12:41:11;0.70;;;0.70;;
10154;SDS011;5118;48.570;7.916;2023-08-06T12:43:40;1.08;;;0.82;;
10154;SDS011;5118;48.570;7.916;2023-08-06T12:46:08;1.10;;;0.75;;
10154;SDS011;5118;48.570;7.916;2023-08-06T12:48:37;0.82;;;0.82;;
10154;SDS011;5118;48.570;7.916;2023-08-06T12:51:05;0.73;;;0.73;;
10154;SDS011;5118;48.570;7.916;2023-08-06T12:53:35;0.80;;;0.80;;
10154;SDS011;5118;48.570;7.916;2023-08-06T12:56:04;0.80;;;0.80;;
10154;SDS011;5118;48.570;7.916;2023-08-06T12:58:32;1.02;;;0.80;;
10154;SDS011;5118;48.570;7.916;2023-08-06T13:01:01;1.02;;;0.95;;
10154;SDS011;5118;48.570;7.916;2023-08-06T13:03:30;1.48;;;0.70;;
10154;SDS011;5118;48.570;7.916;2023-08-06T13:05:59;1.05;;;1.05;;
10154;SDS011;5118;48.570;7.916;2023-08-06T13:08:28;1.30;;;1.20;;
10154;SDS011;5118;48.570;7.916;2023-08-06T13:10:57;12.30;;;1.20;;
10154;SDS011;5118;48.570;7.916;2023-08-06T13:13:26;10.25;;;1.60;;
10154;SDS011;5118;48.570;7.916;2023-08-06T13:15:55;2.95;;;1.35;;
10154;SDS011;5118;48.570;7.916;2023-08-06T13:18:23;1.45;;;1.20;;
10154;SDS011;5118;48.570;7.916;2023-08-06T13:20:52;1.02;;;0.90;;
10154;SDS011;5118;48.570;7.916;2023-08-06T13:23:22;1.88;;;1.10;;
10154;SDS011;5118;48.570;7.916;2023-08-06T13:25:50;1.33;;;1.23;;
10154;SDS011;5118;48.570;7.916;2023-08-06T13:28:20;1.70;;;1.17;;
10154;SDS011;5118;48.570;7.916;2023-08-06T13:30:49;1.37;;;1.27;;
10154;SDS011;5118;48.570;7.916;2023-08-06T13:33:18;2.57;;;1.50;;
10154;SDS011;5118;48.570;7.916;2023-08-06T13:35:47;3.13;;;1.50;;
10154;SDS011;5118;48.570;7.916;2023-08-06T13:38:17;2.00;;;1.17;;
10154;SDS011;5118;48.570;7.916;2023-08-06T13:40:45;1.50;;;1.40;;
10154;SDS011;5118;48.570;7.916;2023-08-06T13:43:14;1.40;;;1.30;;
10154;SDS011;5118;48.570;7.916;2023-08-06T13:45:47;1.95;;;1.10;;
10154;SDS011;5118;48.570;7.916;2023-08-06T13:48:16;0.97;;;0.90;;
10154;SDS011;5118;48.570;7.916;2023-08-06T13:50:44;1.55;;;1.00;;
10154;SDS011;5118;48.570;7.916;2023-08-06T13:53:13;1.45;;;1.10;;
10154;SDS011;5118;48.570;7.916;2023-08-06T13:55:41;0.93;;;0.93;;
10154;SDS011;5118;48.570;7.916;2023-08-06T13:58:09;0.85;;;0.85;;
10154;SDS011;5118;48.570;7.916;2023-08-06T14:00:38;1.00;;;0.88;;
10154;SDS011;5118;48.570;7.916;2023-08-06T14:03:11;0.95;;;0.88;;
10154;SDS011;5118;48.570;7.916;2023-08-06T14:05:39;3.15;;;0.88;;
10154;SDS011;5118;48.570;7.916;2023-08-06T14:08:08;1.10;;;0.98;;
10154;SDS011;5118;48.570;7.916;2023-08-06T14:10:37;1.20;;;1.10;;
10154;SDS011;5118;48.570;7.916;2023-08-06T14:13:06;1.80;;;0.90;;
10154;SDS011;5118;48.570;7.916;2023-08-06T14:15:36;0.90;;;0.90;;
10154;SDS011;5118;48.570;7.916;2023-08-06T14:18:07;1.02;;;0.93;;
10154;SDS011;5118;48.570;7.916;2023-08-06T14:20:37;1.13;;;1.00;;
10154;SDS011;5118;48.570;7.916;2023-08-06T14:23:06;1.30;;;1.17;;
10154;SDS011;5118;48.570;7.916;2023-08-06T14:25:35;1.02;;;0.90;;
10154;SDS011;5118;48.570;7.916;2023-08-06T14:28:03;1.90;;;1.08;;
10154;SDS011;5118;48.570;7.916;2023-08-06T14:30:33;1.67;;;0.80;;
10154;SDS011;5118;48.570;7.916;2023-08-06T14:33:02;2.45;;;1.35;;
10154;SDS011;5118;48.570;7.916;2023-08-06T14:35:52;0.90;;;0.90;;
10154;SDS011;5118;48.570;7.916;2023-08-06T14:38:20;1.20;;;1.10;;
10154;SDS011;5118;48.570;7.916;2023-08-06T14:40:50;1.00;;;1.00;;
10154;SDS011;5118;48.570;7.916;2023-08-06T14:43:18;1.20;;;1.02;;
10154;SDS011;5118;48.570;7.916;2023-08-06T14:45:48;1.65;;;1.10;;
10154;SDS011;5118;48.570;7.916;2023-08-06T14:48:16;1.73;;;1.13;;
10154;SDS011;5118;48.570;7.916;2023-08-06T14:50:45;2.88;;;1.38;;
10154;SDS011;5118;48.570;7.916;2023-08-06T14:53:15;4.60;;;1.40;;
10154;SDS011;5118;48.570;7.916;2023-08-06T14:55:43;1.40;;;1.30;;
10154;SDS011;5118;48.570;7.916;2023-08-06T14:58:12;2.97;;;1.45;;
10154;SDS011;5118;48.570;7.916;2023-08-06T15:00:41;3.25;;;1.42;;
10154;SDS011;5118;48.570;7.916;2023-08-06T15:03:09;1.58;;;1.48;;
10154;SDS011;5118;48.570;7.916;2023-08-06T15:05:42;3.60;;;1.47;;
10154;SDS011;5118;48.570;7.916;2023-08-06T15:08:11;2.72;;;1.50;;
10154;SDS011;5118;48.570;7.916;2023-08-06T15:10:40;1.30;;;1.20;;
10154;SDS011;5118;48.570;7.916;2023-08-06T15:13:09;1.20;;;1.20;;
10154;SDS011;5118;48.570;7.916;2023-08-06T15:15:37;1.40;;;1.10;;
10154;SDS011;5118;48.570;7.916;2023-08-06T15:18:09;1.30;;;1.20;;
10154;SDS011;5118;48.570;7.916;2023-08-06T15:20:38;0.93;;;0.93;;